createdAt,value
2023-05-06T00:00:12.850Z,99.90
2023-05-06T00:04:38.604Z,99.90
2023-05-06T00:09:01.264Z,99.90
2023-05-06T00:13:23.270Z,99.90
2023-05-06T00:17:45.534Z,99.90
2023-05-06T00:22:07.707Z,99.90
2023-05-06T00:26:31.013Z,99.90
2023-05-06T00:30:53.054Z,99.90
2023-05-06T00:35:15.224Z,99.90
2023-05-06T00:39:37.427Z,99.90
2023-05-06T00:43:59.962Z,99.90
2023-05-06T00:48:22.685Z,99.90
2023-05-06T00:52:45.526Z,99.90
2023-05-06T00:57:07.987Z,99.90
2023-05-06T01:01:31.780Z,99.90
2023-05-06T01:06:18.985Z,99.90
2023-05-06T01:11:09.423Z,99.90
2023-05-06T01:15:46.658Z,99.90
2023-05-06T01:20:15.531Z,99.90
2023-05-06T01:24:47.691Z,99.90
2023-05-06T01:29:09.648Z,99.90
2023-05-06T01:33:57.081Z,99.90
2023-05-06T01:38:47.960Z,99.90
2023-05-06T01:43:12.158Z,99.90
2023-05-06T01:47:36.264Z,99.90
2023-05-06T01:51:59.428Z,99.90
2023-05-06T01:56:21.896Z,99.90
2023-05-06T02:00:43.853Z,99.90
2023-05-06T02:05:08.066Z,99.90
2023-05-06T02:09:35.186Z,99.90
2023-05-06T02:13:58.627Z,99.90
2023-05-06T02:18:21.794Z,99.90
2023-05-06T02:22:44.028Z,99.90
2023-05-06T02:27:06.528Z,99.90
2023-05-06T02:31:28.918Z,99.90
2023-05-06T02:35:51.819Z,99.90
2023-05-06T02:40:14.021Z,99.90
2023-05-06T02:44:36.230Z,99.90
2023-05-06T02:48:58.151Z,99.90
2023-05-06T02:53:20.387Z,99.90
2023-05-06T02:57:42.247Z,99.90
2023-05-06T03:02:04.230Z,99.90
2023-05-06T03:06:26.488Z,99.90
2023-05-06T03:10:48.544Z,99.90
2023-05-06T03:15:13.648Z,99.90
2023-05-06T03:19:36.086Z,99.90
2023-05-06T03:24:01.239Z,99.90
2023-05-06T03:28:25.352Z,99.90
2023-05-06T03:32:49.092Z,99.90
2023-05-06T03:37:18.549Z,99.90
2023-05-06T03:41:45.847Z,99.90
2023-05-06T03:46:09.225Z,99.90
2023-05-06T03:50:32.804Z,99.90
2023-05-06T03:54:55.019Z,99.90
2023-05-06T03:59:17.892Z,99.90
2023-05-06T04:03:40.957Z,99.90
2023-05-06T04:08:03.665Z,99.90
2023-05-06T04:12:26.084Z,99.90
2023-05-06T04:16:48.484Z,99.90
2023-05-06T04:21:13.791Z,99.90
2023-05-06T04:25:38.501Z,99.90
2023-05-06T04:30:01.141Z,99.90
2023-05-06T04:34:25.296Z,99.90
2023-05-06T04:38:47.885Z,99.90
2023-05-06T04:43:11.734Z,99.90
2023-05-06T04:47:34.667Z,99.90
2023-05-06T04:51:58.211Z,99.90
2023-05-06T04:56:21.521Z,99.90
2023-05-06T05:00:44.886Z,99.90
2023-05-06T05:05:07.860Z,99.90
2023-05-06T05:09:30.109Z,99.90
2023-05-06T05:13:54.271Z,99.90
2023-05-06T05:18:17.704Z,99.90
2023-05-06T05:22:41.606Z,99.90
2023-05-06T05:27:03.934Z,99.90
2023-05-06T05:31:26.981Z,99.90
2023-05-06T05:35:49.024Z,99.90
2023-05-06T05:40:11.680Z,99.90
2023-05-06T05:44:36.308Z,99.90
2023-05-06T05:49:00.898Z,99.90
2023-05-06T05:53:23.034Z,99.90
2023-05-06T05:57:46.175Z,99.90
2023-05-06T06:02:08.955Z,99.90
2023-05-06T06:06:31.875Z,99.90
2023-05-06T06:10:54.316Z,99.90
2023-05-06T06:15:20.716Z,99.90
2023-05-06T06:19:47.106Z,99.90
2023-05-06T06:24:09.306Z,99.90
2023-05-06T06:28:31.886Z,99.90
2023-05-06T06:32:56.818Z,99.90
2023-05-06T06:37:19.167Z,99.90
2023-05-06T06:41:41.082Z,99.90
2023-05-06T06:46:03.079Z,99.90
2023-05-06T06:50:25.551Z,99.90
2023-05-06T06:54:47.726Z,99.90
2023-05-06T06:59:09.625Z,99.90
2023-05-06T07:03:31.611Z,99.90
2023-05-06T07:07:53.810Z,99.90
2023-05-06T07:12:15.964Z,99.90
2023-05-06T07:16:38.106Z,99.90
2023-05-06T07:21:00.362Z,99.90
2023-05-06T07:25:22.322Z,99.90
2023-05-06T07:29:44.369Z,99.90
2023-05-06T07:34:06.481Z,99.90
2023-05-06T07:38:28.396Z,99.90
2023-05-06T07:42:50.680Z,99.90
2023-05-06T07:47:26.218Z,99.90
2023-05-06T07:51:48.806Z,99.90
2023-05-06T07:56:10.734Z,99.90
2023-05-06T08:00:33.129Z,99.90
2023-05-06T08:04:55.570Z,99.90
2023-05-06T08:09:23.087Z,99.90
2023-05-06T08:13:46.295Z,99.90
2023-05-06T08:18:20.981Z,99.90
2023-05-06T08:22:44.870Z,99.90
2023-05-06T08:27:07.286Z,99.90
2023-05-06T08:31:29.582Z,99.90
2023-05-06T08:35:51.871Z,99.90
2023-05-06T08:40:22.264Z,99.90
2023-05-06T08:44:44.851Z,99.90
2023-05-06T08:49:07.175Z,99.90
2023-05-06T08:53:34.120Z,99.90
2023-05-06T08:57:57.568Z,99.90
2023-05-06T09:02:19.913Z,99.90
2023-05-06T09:06:42.167Z,99.90
2023-05-06T09:11:19.095Z,99.90
2023-05-06T09:15:47.490Z,99.90
2023-05-06T09:20:12.792Z,99.90
2023-05-06T09:24:35.191Z,99.90
2023-05-06T09:28:58.514Z,99.90
2023-05-06T09:33:21.790Z,99.90
2023-05-06T09:37:44.151Z,99.90
2023-05-06T09:42:06.591Z,99.90
2023-05-06T09:46:29.487Z,99.90
2023-05-06T09:50:51.816Z,99.90
2023-05-06T09:55:15.492Z,99.90
2023-05-06T09:59:38.559Z,99.90
2023-05-06T10:04:05.211Z,99.90
2023-05-06T10:08:28.512Z,96.60
2023-05-06T10:12:50.903Z,89.30
2023-05-06T10:17:14.056Z,87.60
2023-05-06T10:21:40.728Z,91.60
2023-05-06T10:26:13.055Z,94.00
2023-05-06T10:30:37.222Z,95.50
2023-05-06T10:35:11.082Z,94.60
2023-05-06T10:39:35.266Z,92.70
2023-05-06T10:43:58.053Z,93.40
2023-05-06T10:48:20.128Z,94.70
2023-05-06T10:52:46.823Z,95.70
2023-05-06T10:57:10.033Z,94.60
2023-05-06T11:01:32.400Z,96.10
2023-05-06T11:05:54.531Z,96.50
2023-05-06T11:10:31.104Z,96.30
2023-05-06T11:14:52.982Z,97.90
2023-05-06T11:19:38.732Z,99.00
2023-05-06T11:24:00.938Z,98.90
2023-05-06T11:28:25.707Z,97.20
2023-05-06T11:32:48.277Z,97.50
2023-05-06T11:37:10.995Z,97.90
2023-05-06T11:41:33.370Z,97.90
2023-05-06T11:45:55.262Z,97.90
2023-05-06T11:50:22.509Z,98.10
2023-05-06T11:54:47.516Z,97.30
2023-05-06T11:59:11.205Z,98.20
2023-05-06T12:03:33.923Z,97.90
2023-05-06T12:07:56.390Z,97.40
2023-05-06T12:12:22.768Z,96.70
2023-05-06T12:16:45.013Z,97.80
2023-05-06T12:21:07.574Z,98.10
2023-05-06T12:25:29.980Z,97.10
2023-05-06T12:29:55.146Z,96.80
2023-05-06T12:34:18.700Z,96.80
2023-05-06T12:38:54.522Z,96.60
2023-05-06T12:43:16.632Z,96.30
2023-05-06T12:47:38.847Z,96.60
2023-05-06T12:52:11.508Z,96.70
2023-05-06T12:56:33.488Z,96.50
2023-05-06T13:00:55.715Z,96.40
2023-05-06T13:05:18.048Z,96.90
2023-05-06T13:09:39.998Z,97.40
2023-05-06T13:14:02.207Z,96.50
2023-05-06T13:18:24.246Z,96.60
2023-05-06T13:22:54.447Z,96.00
2023-05-06T13:27:17.877Z,95.60
2023-05-06T13:31:40.393Z,96.20
2023-05-06T13:36:05.093Z,97.20
2023-05-06T13:40:27.363Z,96.60
2023-05-06T13:44:49.318Z,96.60
2023-05-06T13:49:11.327Z,98.40
2023-05-06T13:53:34.026Z,97.60
2023-05-06T13:57:56.231Z,98.30
2023-05-06T14:02:18.234Z,97.80
2023-05-06T14:06:40.774Z,98.80
2023-05-06T14:11:03.233Z,98.60
2023-05-06T14:15:25.647Z,99.00
2023-05-06T14:19:47.606Z,99.20
2023-05-06T14:24:11.072Z,99.10
2023-05-06T14:28:33.410Z,99.90
2023-05-06T14:32:55.567Z,99.90
2023-05-06T14:37:17.668Z,99.90
2023-05-06T14:41:40.108Z,99.90
2023-05-06T14:46:02.604Z,99.90
2023-05-06T14:50:24.852Z,99.90
2023-05-06T14:54:47.227Z,99.90
2023-05-06T14:59:09.426Z,99.90
2023-05-06T15:03:31.406Z,99.90
2023-05-06T15:07:53.326Z,99.90
2023-05-06T15:12:16.003Z,99.90
2023-05-06T15:16:38.106Z,99.90
2023-05-06T15:21:01.752Z,99.90
2023-05-06T15:25:35.097Z,99.90
2023-05-06T15:29:58.486Z,99.90
2023-05-06T15:34:21.072Z,99.90
2023-05-06T15:38:52.637Z,99.90
2023-05-06T15:43:22.824Z,99.90
2023-05-06T15:47:48.374Z,99.90
2023-05-06T15:52:11.188Z,99.90
2023-05-06T15:56:39.387Z,99.90
2023-05-06T16:01:03.896Z,99.90
2023-05-06T16:05:26.460Z,99.90
2023-05-06T16:09:49.807Z,99.90
2023-05-06T16:14:11.840Z,99.90
2023-05-06T16:18:35.097Z,99.90
2023-05-06T16:22:57.355Z,99.90
2023-05-06T16:27:19.352Z,99.90
2023-05-06T16:31:41.698Z,99.90
2023-05-06T16:36:04.865Z,99.90
2023-05-06T16:40:27.968Z,99.90
2023-05-06T16:44:49.988Z,99.90
2023-05-06T16:49:11.882Z,99.90
2023-05-06T16:53:33.895Z,99.90
2023-05-06T16:57:56.125Z,99.90
2023-05-06T17:02:18.585Z,99.90
2023-05-06T17:06:40.913Z,99.90
2023-05-06T17:11:06.106Z,99.90
2023-05-06T17:15:28.462Z,99.90
2023-05-06T17:19:51.646Z,99.90
2023-05-06T17:24:13.928Z,99.90
2023-05-06T17:28:35.978Z,99.90
2023-05-06T17:32:58.167Z,99.90
2023-05-06T17:37:20.400Z,99.90
2023-05-06T17:41:42.529Z,99.90
2023-05-06T17:46:04.691Z,99.90
2023-05-06T17:50:26.808Z,99.90
2023-05-06T17:55:01.440Z,99.90
2023-05-06T17:59:32.224Z,99.90
2023-05-06T18:03:54.821Z,99.90
2023-05-06T18:08:17.297Z,99.90
2023-05-06T18:12:39.451Z,99.90
2023-05-06T18:17:02.143Z,99.90
2023-05-06T18:21:24.310Z,99.90
2023-05-06T18:25:46.533Z,99.90
2023-05-06T18:30:09.630Z,99.90
2023-05-06T18:34:31.959Z,99.90
2023-05-06T18:38:53.988Z,99.90
2023-05-06T18:43:16.007Z,99.90
2023-05-06T18:47:40.345Z,99.90
2023-05-06T18:52:06.085Z,99.90
2023-05-06T18:56:28.318Z,99.90
2023-05-06T19:00:50.326Z,99.90
2023-05-06T19:05:13.089Z,99.90
2023-05-06T19:09:37.313Z,99.90
2023-05-06T19:13:59.182Z,99.90
2023-05-06T19:18:21.633Z,99.90
2023-05-06T19:22:44.608Z,99.90
2023-05-06T19:27:06.625Z,99.90
2023-05-06T19:31:28.771Z,99.90
2023-05-06T19:35:54.657Z,99.90
2023-05-06T19:40:18.972Z,99.90
2023-05-06T19:44:41.389Z,99.90
2023-05-06T19:49:03.615Z,99.90
2023-05-06T19:53:25.970Z,99.90
2023-05-06T19:57:47.993Z,99.90
2023-05-06T20:02:13.600Z,99.90
2023-05-06T20:06:36.193Z,99.90
2023-05-06T20:10:58.495Z,99.90
2023-05-06T20:15:21.032Z,99.90
2023-05-06T20:19:45.336Z,99.90
2023-05-06T20:24:07.732Z,99.90
2023-05-06T20:28:30.041Z,99.90
2023-05-06T20:32:53.334Z,99.90
2023-05-06T20:37:16.631Z,99.90
2023-05-06T20:41:41.132Z,99.90
2023-05-06T20:46:03.473Z,99.90
2023-05-06T20:50:25.964Z,99.90
2023-05-06T20:54:48.645Z,99.90
2023-05-06T20:59:10.552Z,99.90
2023-05-06T21:03:32.572Z,99.90
2023-05-06T21:07:54.940Z,99.90
2023-05-06T21:12:16.999Z,99.90
2023-05-06T21:16:40.804Z,99.90
2023-05-06T21:21:03.364Z,99.90
2023-05-06T21:25:25.344Z,99.90
2023-05-06T21:29:47.484Z,99.90
2023-05-06T21:34:10.686Z,99.90
2023-05-06T21:38:32.704Z,99.90
2023-05-06T21:42:54.516Z,99.90
2023-05-06T21:47:16.490Z,99.90
2023-05-06T21:51:38.507Z,99.90
2023-05-06T21:56:01.123Z,99.90
2023-05-06T22:00:23.248Z,99.90
2023-05-06T22:04:45.629Z,99.90
2023-05-06T22:09:09.732Z,99.90
2023-05-06T22:13:32.451Z,99.90
2023-05-06T22:17:55.401Z,99.90
2023-05-06T22:22:19.950Z,99.90
2023-05-06T22:26:42.193Z,99.90
2023-05-06T22:31:04.726Z,99.90
2023-05-06T22:35:26.690Z,99.90
2023-05-06T22:39:50.907Z,99.90
2023-05-06T22:44:13.953Z,99.90
2023-05-06T22:48:36.256Z,99.90
2023-05-06T22:52:58.483Z,99.90
2023-05-06T22:57:23.392Z,99.90
2023-05-06T23:01:45.886Z,99.90
2023-05-06T23:06:08.094Z,99.90
2023-05-06T23:10:29.964Z,99.90
2023-05-06T23:14:51.919Z,99.90
2023-05-06T23:19:13.987Z,99.90
2023-05-06T23:23:35.971Z,99.90
2023-05-06T23:27:58.054Z,99.90
2023-05-06T23:32:19.894Z,99.90
2023-05-06T23:36:41.956Z,99.90
2023-05-06T23:41:04.605Z,99.90
2023-05-06T23:45:27.040Z,99.90
2023-05-06T23:49:49.472Z,99.90
2023-05-06T23:54:11.344Z,99.90
2023-05-06T23:58:33.698Z,99.90
